createdAt,value
2023-05-09T00:01:18.390Z,13.92
2023-05-09T00:03:44.865Z,13.98
2023-05-09T00:06:11.610Z,13.98
2023-05-09T00:08:38.091Z,13.97
2023-05-09T00:11:04.734Z,14.07
2023-05-09T00:13:31.109Z,14.16
2023-05-09T00:15:58.444Z,14.14
2023-05-09T00:18:24.957Z,14.10
2023-05-09T00:20:51.401Z,14.12
2023-05-09T00:23:17.937Z,14.18
2023-05-09T00:25:44.493Z,14.31
2023-05-09T00:28:11.192Z,14.33
2023-05-09T00:30:37.781Z,14.35
2023-05-09T00:33:04.492Z,14.28
2023-05-09T00:35:32.259Z,14.32
2023-05-09T00:37:59.440Z,14.32
2023-05-09T00:40:26.034Z,14.11
2023-05-09T00:42:52.559Z,13.87
2023-05-09T00:45:19.096Z,13.91
2023-05-09T00:47:45.632Z,13.96
2023-05-09T00:50:12.311Z,14.06
2023-05-09T00:52:39.157Z,14.25
2023-05-09T00:55:08.263Z,14.27
2023-05-09T00:57:35.111Z,14.52
2023-05-09T01:00:01.846Z,14.43
2023-05-09T01:02:28.666Z,14.41
2023-05-09T01:04:56.005Z,14.39
2023-05-09T01:07:43.614Z,14.32
2023-05-09T01:10:26.577Z,14.21
2023-05-09T01:13:00.222Z,14.44
2023-05-09T01:15:36.221Z,14.48
2023-05-09T01:18:28.310Z,14.45
2023-05-09T01:21:01.850Z,14.50
2023-05-09T01:23:45.351Z,14.44
2023-05-09T01:26:32.650Z,14.59
2023-05-09T01:29:29.220Z,14.67
2023-05-09T01:31:58.078Z,14.69
2023-05-09T01:34:27.263Z,14.65
2023-05-09T01:36:58.458Z,14.57
2023-05-09T01:39:26.954Z,14.57
2023-05-09T01:41:56.664Z,14.37
2023-05-09T01:44:25.517Z,14.34
2023-05-09T01:46:54.674Z,14.45
2023-05-09T01:49:22.709Z,14.29
2023-05-09T01:51:50.694Z,14.40
2023-05-09T01:54:18.499Z,14.42
2023-05-09T01:56:46.008Z,14.34
2023-05-09T01:59:16.209Z,14.34
2023-05-09T02:01:44.634Z,14.40
2023-05-09T02:04:12.654Z,14.37
2023-05-09T02:06:40.381Z,14.42
2023-05-09T02:09:07.142Z,14.42
2023-05-09T02:11:33.592Z,14.22
2023-05-09T02:14:00.195Z,14.19
2023-05-09T02:16:27.739Z,14.22
2023-05-09T02:18:54.240Z,14.20
2023-05-09T02:21:20.755Z,14.20
2023-05-09T02:23:47.644Z,14.15
2023-05-09T02:26:14.749Z,14.05
2023-05-09T02:28:44.006Z,13.87
2023-05-09T02:31:13.955Z,13.75
2023-05-09T02:33:42.874Z,13.51
2023-05-09T02:36:10.232Z,13.49
2023-05-09T02:38:37.005Z,13.46
2023-05-09T02:41:03.399Z,13.54
2023-05-09T02:43:29.786Z,13.62
2023-05-09T02:45:56.336Z,13.71
2023-05-09T02:48:23.231Z,13.67
2023-05-09T02:50:49.720Z,13.62
2023-05-09T02:53:16.230Z,13.52
2023-05-09T02:55:42.678Z,13.52
2023-05-09T02:58:14.087Z,13.45
2023-05-09T03:00:41.825Z,13.47
2023-05-09T03:03:08.513Z,13.58
2023-05-09T03:05:35.267Z,13.69
2023-05-09T03:08:01.752Z,13.72
2023-05-09T03:10:28.298Z,13.85
2023-05-09T03:12:54.859Z,13.94
2023-05-09T03:15:21.553Z,13.93
2023-05-09T03:17:48.052Z,13.93
2023-05-09T03:20:15.702Z,13.77
2023-05-09T03:22:42.334Z,13.48
2023-05-09T03:25:09.479Z,13.24
2023-05-09T03:27:35.966Z,12.89
2023-05-09T03:30:03.846Z,13.04
2023-05-09T03:32:30.505Z,13.12
2023-05-09T03:34:57.300Z,13.10
2023-05-09T03:37:25.476Z,13.00
2023-05-09T03:39:53.210Z,12.93
2023-05-09T03:42:19.642Z,13.01
2023-05-09T03:44:46.366Z,13.01
2023-05-09T03:47:12.761Z,13.04
2023-05-09T03:49:39.227Z,13.00
2023-05-09T03:52:05.794Z,12.93
2023-05-09T03:54:32.188Z,12.89
2023-05-09T03:56:58.624Z,12.83
2023-05-09T03:59:25.059Z,12.80
2023-05-09T04:01:51.582Z,12.83
2023-05-09T04:04:18.126Z,12.82
2023-05-09T04:06:44.602Z,12.76
2023-05-09T04:09:11.218Z,12.72
2023-05-09T04:11:37.644Z,12.73
2023-05-09T04:14:07.112Z,12.91
2023-05-09T04:16:33.941Z,12.95
2023-05-09T04:19:00.500Z,13.01
2023-05-09T04:21:26.883Z,13.11
2023-05-09T04:23:53.419Z,13.08
2023-05-09T04:26:22.562Z,13.13
2023-05-09T04:28:49.007Z,13.13
2023-05-09T04:31:15.631Z,13.09
2023-05-09T04:33:42.173Z,13.24
2023-05-09T04:36:09.016Z,13.42
2023-05-09T04:38:35.463Z,13.41
2023-05-09T04:41:02.009Z,13.32
2023-05-09T04:43:28.509Z,13.29
2023-05-09T04:45:54.928Z,13.45
2023-05-09T04:48:21.420Z,13.62
2023-05-09T04:50:48.613Z,13.63
2023-05-09T04:53:15.172Z,13.61
2023-05-09T04:55:41.613Z,13.76
2023-05-09T04:58:09.394Z,14.02
2023-05-09T05:00:36.166Z,14.17
2023-05-09T05:03:02.947Z,14.38
2023-05-09T05:05:29.639Z,14.41
2023-05-09T05:07:56.532Z,14.58
2023-05-09T05:10:23.083Z,14.56
2023-05-09T05:12:49.785Z,14.50
2023-05-09T05:15:17.645Z,14.91
2023-05-09T05:17:44.102Z,15.39
2023-05-09T05:20:10.930Z,15.81
2023-05-09T05:22:37.448Z,16.14
2023-05-09T05:25:05.050Z,16.69
2023-05-09T05:27:31.764Z,16.22
2023-05-09T05:30:04.662Z,15.32
2023-05-09T05:32:31.260Z,14.90
2023-05-09T05:34:57.847Z,14.82
2023-05-09T05:37:24.405Z,14.81
2023-05-09T05:39:51.710Z,15.99
2023-05-09T05:42:18.196Z,16.59
2023-05-09T05:44:44.860Z,16.83
2023-05-09T05:47:11.600Z,17.60
2023-05-09T05:49:38.575Z,17.34
2023-05-09T05:52:05.215Z,18.39
2023-05-09T05:54:31.734Z,18.46
2023-05-09T05:56:58.347Z,18.47
2023-05-09T05:59:33.581Z,17.89
2023-05-09T06:02:00.265Z,17.27
2023-05-09T06:04:28.125Z,16.71
2023-05-09T06:06:54.653Z,16.45
2023-05-09T06:09:21.178Z,17.45
2023-05-09T06:11:47.698Z,17.10
2023-05-09T06:14:14.174Z,17.26
2023-05-09T06:16:41.196Z,17.14
2023-05-09T06:19:07.973Z,16.80
2023-05-09T06:21:34.490Z,16.05
2023-05-09T06:24:08.362Z,15.78
2023-05-09T06:26:37.065Z,15.50
2023-05-09T06:29:06.009Z,15.41
2023-05-09T06:31:33.109Z,15.57
2023-05-09T06:33:59.651Z,15.59
2023-05-09T06:36:26.219Z,15.67
2023-05-09T06:38:52.670Z,15.70
2023-05-09T06:41:19.236Z,15.50
2023-05-09T06:43:45.725Z,16.04
2023-05-09T06:46:12.307Z,16.06
2023-05-09T06:48:41.228Z,15.87
2023-05-09T06:51:11.497Z,16.51
2023-05-09T06:53:38.438Z,16.47
2023-05-09T06:56:05.275Z,16.32
2023-05-09T06:58:31.888Z,15.91
2023-05-09T07:00:58.835Z,15.63
2023-05-09T07:03:26.098Z,15.62
2023-05-09T07:05:52.706Z,15.71
2023-05-09T07:08:19.251Z,15.74
2023-05-09T07:10:45.770Z,15.61
2023-05-09T07:13:12.294Z,15.74
2023-05-09T07:15:42.645Z,15.58
2023-05-09T07:18:09.843Z,15.42
2023-05-09T07:20:36.565Z,15.58
2023-05-09T07:23:04.173Z,15.64
2023-05-09T07:25:30.794Z,15.69
2023-05-09T07:27:57.845Z,15.83
2023-05-09T07:30:25.266Z,15.89
2023-05-09T07:32:52.254Z,16.12
2023-05-09T07:35:19.882Z,16.27
2023-05-09T07:37:46.431Z,16.15
2023-05-09T07:40:13.826Z,16.16
2023-05-09T07:42:40.782Z,16.25
2023-05-09T07:45:07.853Z,15.80
2023-05-09T07:47:34.534Z,15.79
2023-05-09T07:50:04.228Z,15.83
2023-05-09T07:52:30.995Z,15.76
2023-05-09T07:54:57.652Z,15.65
2023-05-09T07:57:24.224Z,15.64
2023-05-09T07:59:50.796Z,15.72
2023-05-09T08:02:17.449Z,16.14
2023-05-09T08:04:44.037Z,16.47
2023-05-09T08:07:11.792Z,16.21
2023-05-09T08:09:38.383Z,16.24
2023-05-09T08:12:05.317Z,16.52
2023-05-09T08:14:34.498Z,16.95
2023-05-09T08:17:01.143Z,17.14
2023-05-09T08:19:27.679Z,17.23
2023-05-09T08:21:54.523Z,17.23
2023-05-09T08:24:21.318Z,17.63
2023-05-09T08:26:47.763Z,17.59
2023-05-09T08:29:14.672Z,17.50
2023-05-09T08:31:41.210Z,17.45
2023-05-09T08:34:07.859Z,17.41
2023-05-09T08:36:34.440Z,17.45
2023-05-09T08:39:01.006Z,17.48
2023-05-09T08:41:30.957Z,17.32
2023-05-09T08:43:57.650Z,17.49
2023-05-09T08:46:44.207Z,17.37
2023-05-09T08:49:11.054Z,17.06
2023-05-09T08:51:38.290Z,17.17
2023-05-09T08:54:05.515Z,17.15
2023-05-09T08:56:34.187Z,17.14
2023-05-09T08:59:00.932Z,17.15
2023-05-09T09:01:27.916Z,16.98
2023-05-09T09:03:54.590Z,17.11
2023-05-09T09:06:23.345Z,17.14
2023-05-09T09:08:50.974Z,17.03
2023-05-09T09:11:18.747Z,16.89
2023-05-09T09:13:46.850Z,17.10
2023-05-09T09:16:21.117Z,17.39
2023-05-09T09:18:51.650Z,17.32
2023-05-09T09:21:19.756Z,17.38
2023-05-09T09:23:47.585Z,17.43
2023-05-09T09:26:14.436Z,17.44
2023-05-09T09:28:41.661Z,17.79
2023-05-09T09:31:28.367Z,17.65
2023-05-09T09:34:02.265Z,17.46
2023-05-09T09:36:36.845Z,17.41
2023-05-09T09:39:05.096Z,17.12
2023-05-09T09:41:33.308Z,17.06
2023-05-09T09:44:07.373Z,16.76
2023-05-09T09:46:55.194Z,16.81
2023-05-09T09:49:22.465Z,16.78
2023-05-09T09:51:54.345Z,16.60
2023-05-09T09:54:21.455Z,16.59
2023-05-09T09:56:54.457Z,16.20
2023-05-09T09:59:23.585Z,16.36
2023-05-09T10:01:56.452Z,16.34
2023-05-09T10:04:23.708Z,16.43
2023-05-09T10:06:57.550Z,16.63
2023-05-09T10:09:24.754Z,17.14
2023-05-09T10:11:52.442Z,17.08
2023-05-09T10:14:21.469Z,17.51
2023-05-09T10:16:49.723Z,17.44
2023-05-09T10:19:23.410Z,17.43
2023-05-09T10:21:52.863Z,17.46
2023-05-09T10:24:28.369Z,17.67
2023-05-09T10:27:06.087Z,17.98
2023-05-09T10:29:38.857Z,17.86
2023-05-09T10:32:15.499Z,18.00
2023-05-09T10:34:47.798Z,18.12
2023-05-09T10:37:16.817Z,18.05
2023-05-09T10:39:44.271Z,17.96
2023-05-09T10:42:12.404Z,18.27
2023-05-09T10:44:39.056Z,18.27
2023-05-09T10:47:06.637Z,17.87
2023-05-09T10:49:35.469Z,18.37
2023-05-09T10:52:03.807Z,18.11
2023-05-09T10:54:34.305Z,18.05
2023-05-09T10:57:01.039Z,18.16
2023-05-09T10:59:46.426Z,18.09
2023-05-09T11:02:14.619Z,18.15
2023-05-09T11:04:41.222Z,17.60
2023-05-09T11:07:26.794Z,17.22
2023-05-09T11:10:07.311Z,17.17
2023-05-09T11:12:34.157Z,17.33
2023-05-09T11:15:08.230Z,17.26
2023-05-09T11:17:38.786Z,17.09
2023-05-09T11:20:06.432Z,17.16
2023-05-09T11:22:44.310Z,17.29
2023-05-09T11:25:13.152Z,17.71
2023-05-09T11:27:47.845Z,17.83
2023-05-09T11:30:18.973Z,17.66
2023-05-09T11:32:55.270Z,17.88
2023-05-09T11:35:23.601Z,18.13
2023-05-09T11:38:00.431Z,17.60
2023-05-09T11:40:28.267Z,17.78
2023-05-09T11:42:58.333Z,18.03
2023-05-09T11:45:30.454Z,17.84
2023-05-09T11:47:57.679Z,17.94
2023-05-09T11:50:24.644Z,17.55
2023-05-09T11:52:51.336Z,17.36
2023-05-09T11:55:22.655Z,17.43
2023-05-09T11:57:51.988Z,17.48
2023-05-09T12:00:20.992Z,17.34
2023-05-09T12:02:48.130Z,17.49
2023-05-09T12:05:16.858Z,17.53
2023-05-09T12:07:44.580Z,17.62
2023-05-09T12:10:19.891Z,17.66
2023-05-09T12:12:50.917Z,17.84
2023-05-09T12:15:18.591Z,17.88
2023-05-09T12:17:47.240Z,17.71
2023-05-09T12:20:14.866Z,17.44
2023-05-09T12:22:44.489Z,17.10
2023-05-09T12:25:12.092Z,16.97
2023-05-09T12:27:40.359Z,16.35
2023-05-09T12:30:10.151Z,16.22
2023-05-09T12:32:39.683Z,16.43
2023-05-09T12:35:10.562Z,16.53
2023-05-09T12:37:38.143Z,16.72
2023-05-09T12:40:09.347Z,16.87
2023-05-09T12:42:36.092Z,16.87
2023-05-09T12:45:03.596Z,17.31
2023-05-09T12:47:31.748Z,17.59
2023-05-09T12:49:59.446Z,17.57
2023-05-09T12:52:26.115Z,18.22
2023-05-09T12:54:53.888Z,18.85
2023-05-09T12:57:23.179Z,19.05
2023-05-09T12:59:50.146Z,18.65
2023-05-09T13:02:16.865Z,19.12
2023-05-09T13:04:45.996Z,19.71
2023-05-09T13:07:12.479Z,20.47
2023-05-09T13:09:55.603Z,22.11
2023-05-09T13:12:22.172Z,21.40
2023-05-09T13:14:48.892Z,20.66
2023-05-09T13:17:18.438Z,19.75
2023-05-09T13:19:47.785Z,19.69
2023-05-09T13:22:14.540Z,19.28
2023-05-09T13:24:44.136Z,19.27
2023-05-09T13:27:12.204Z,19.35
2023-05-09T13:29:39.063Z,19.20
2023-05-09T13:32:05.886Z,19.53
2023-05-09T13:34:32.396Z,19.48
2023-05-09T13:36:59.131Z,19.73
2023-05-09T13:39:25.677Z,20.23
2023-05-09T13:41:52.946Z,19.29
2023-05-09T13:44:19.566Z,18.87
2023-05-09T13:46:47.064Z,18.51
2023-05-09T13:49:13.679Z,18.67
2023-05-09T13:51:40.282Z,18.50
2023-05-09T13:54:12.425Z,18.10
2023-05-09T13:56:39.593Z,17.84
2023-05-09T13:59:07.317Z,17.81
2023-05-09T14:01:34.129Z,17.91
2023-05-09T14:04:01.164Z,17.81
2023-05-09T14:06:29.060Z,17.90
2023-05-09T14:08:56.549Z,17.55
2023-05-09T14:11:23.413Z,17.67
2023-05-09T14:13:49.890Z,17.91
2023-05-09T14:16:16.508Z,17.99
2023-05-09T14:18:42.962Z,18.13
2023-05-09T14:21:09.419Z,18.08
2023-05-09T14:23:36.067Z,17.91
2023-05-09T14:26:02.613Z,18.07
2023-05-09T14:28:29.066Z,17.96
2023-05-09T14:30:55.846Z,17.87
2023-05-09T14:33:22.257Z,17.95
2023-05-09T14:35:48.676Z,18.31
2023-05-09T14:38:15.828Z,18.48
2023-05-09T14:40:42.324Z,18.53
2023-05-09T14:43:09.581Z,18.61
2023-05-09T14:45:36.186Z,18.48
2023-05-09T14:48:03.609Z,18.79
2023-05-09T14:50:30.254Z,18.69
2023-05-09T14:52:57.302Z,18.66
2023-05-09T14:55:23.770Z,18.86
2023-05-09T14:57:50.192Z,18.89
2023-05-09T15:00:21.791Z,18.84
2023-05-09T15:02:49.388Z,18.69
2023-05-09T15:05:16.903Z,18.55
2023-05-09T15:07:43.431Z,18.68
2023-05-09T15:10:10.401Z,18.66
2023-05-09T15:12:36.932Z,18.50
2023-05-09T15:15:14.047Z,18.52
2023-05-09T15:17:40.970Z,18.29
2023-05-09T15:20:08.073Z,18.13
2023-05-09T15:22:34.789Z,18.08
2023-05-09T15:25:02.961Z,18.05
2023-05-09T15:27:31.446Z,17.94
2023-05-09T15:29:58.119Z,18.00
2023-05-09T15:32:24.704Z,18.17
2023-05-09T15:37:27.593Z,18.12
2023-05-09T15:39:54.036Z,18.07
2023-05-09T15:42:20.507Z,17.84
2023-05-09T15:44:49.708Z,17.89
2023-05-09T15:47:16.415Z,17.84
2023-05-09T15:49:43.002Z,17.75
2023-05-09T15:52:10.723Z,17.59
2023-05-09T15:54:37.907Z,17.61
2023-05-09T15:57:05.065Z,17.54
2023-05-09T15:59:31.544Z,17.42
2023-05-09T16:01:58.147Z,17.19
2023-05-09T16:04:24.713Z,17.09
2023-05-09T16:06:51.729Z,16.92
2023-05-09T16:09:20.828Z,16.89
2023-05-09T16:11:47.482Z,16.76
2023-05-09T16:14:13.995Z,16.61
2023-05-09T16:16:40.701Z,16.51
2023-05-09T16:19:07.217Z,16.30
2023-05-09T16:21:33.700Z,16.20
2023-05-09T16:24:05.038Z,16.03
2023-05-09T16:26:31.683Z,16.00
2023-05-09T16:28:58.222Z,16.05
2023-05-09T16:31:26.694Z,16.05
2023-05-09T16:33:54.337Z,16.05
2023-05-09T16:36:22.036Z,15.98
2023-05-09T16:38:48.678Z,15.90
2023-05-09T16:41:15.946Z,16.04
2023-05-09T16:43:42.770Z,16.03
2023-05-09T16:46:11.507Z,16.05
2023-05-09T16:48:38.011Z,16.15
2023-05-09T16:51:04.783Z,16.16
2023-05-09T16:53:31.287Z,16.25
2023-05-09T16:55:58.446Z,16.26
2023-05-09T16:58:25.295Z,16.20
2023-05-09T17:00:55.343Z,16.00
2023-05-09T17:03:22.021Z,16.11
2023-05-09T17:05:48.416Z,16.09
2023-05-09T17:08:15.225Z,15.97
2023-05-09T17:10:42.296Z,15.98
2023-05-09T17:13:09.029Z,15.73
2023-05-09T17:15:36.910Z,15.69
2023-05-09T17:18:04.682Z,15.71
2023-05-09T17:20:31.740Z,15.69
2023-05-09T17:22:58.154Z,15.79
2023-05-09T17:25:24.607Z,15.61
2023-05-09T17:27:51.180Z,15.74
2023-05-09T17:30:19.407Z,15.81
2023-05-09T17:32:48.009Z,15.84
2023-05-09T17:35:15.102Z,15.87
2023-05-09T17:37:41.545Z,15.91
2023-05-09T17:40:08.734Z,15.82
2023-05-09T17:42:35.228Z,15.79
2023-05-09T17:45:01.816Z,15.49
2023-05-09T17:47:28.839Z,15.19
2023-05-09T17:49:55.431Z,15.06
2023-05-09T17:52:22.059Z,15.04
2023-05-09T17:54:48.802Z,15.05
2023-05-09T17:57:15.239Z,15.13
2023-05-09T17:59:41.684Z,15.26
2023-05-09T18:02:08.289Z,15.31
2023-05-09T18:04:34.765Z,15.33
2023-05-09T18:07:01.533Z,15.38
2023-05-09T18:09:28.148Z,15.48
2023-05-09T18:11:54.626Z,15.56
2023-05-09T18:14:22.374Z,15.53
2023-05-09T18:16:48.943Z,15.46
2023-05-09T18:19:15.489Z,15.41
2023-05-09T18:21:41.925Z,15.38
2023-05-09T18:24:09.233Z,15.42
2023-05-09T18:26:35.929Z,15.50
2023-05-09T18:29:02.532Z,15.49
2023-05-09T18:31:31.151Z,15.46
2023-05-09T18:33:57.650Z,15.45
2023-05-09T18:36:24.085Z,15.43
2023-05-09T18:38:50.977Z,15.47
2023-05-09T18:41:17.576Z,15.32
2023-05-09T18:43:46.820Z,14.94
2023-05-09T18:46:17.663Z,14.58
2023-05-09T18:48:45.641Z,14.48
2023-05-09T18:51:12.190Z,14.37
2023-05-09T18:53:38.742Z,14.31
2023-05-09T18:56:05.379Z,14.31
2023-05-09T18:58:32.405Z,14.33
2023-05-09T19:00:59.161Z,14.35
2023-05-09T19:03:27.141Z,14.34
2023-05-09T19:05:53.927Z,14.32
2023-05-09T19:08:20.626Z,14.43
2023-05-09T19:10:47.128Z,14.43
2023-05-09T19:13:16.064Z,14.36
2023-05-09T19:15:43.066Z,14.32
2023-05-09T19:18:09.614Z,14.31
2023-05-09T19:20:36.131Z,14.38
2023-05-09T19:23:02.721Z,14.48
2023-05-09T19:25:33.731Z,14.48
2023-05-09T19:28:01.522Z,14.49
2023-05-09T19:30:27.958Z,14.49
2023-05-09T19:32:54.592Z,14.46
2023-05-09T19:35:21.195Z,14.52
2023-05-09T19:37:47.710Z,14.43
2023-05-09T19:40:14.883Z,14.27
2023-05-09T19:42:41.919Z,14.42
2023-05-09T19:45:08.916Z,14.37
2023-05-09T19:47:35.569Z,14.41
2023-05-09T19:50:02.179Z,14.35
2023-05-09T19:52:29.787Z,14.39
2023-05-09T19:54:56.226Z,14.39
2023-05-09T19:57:22.819Z,14.29
2023-05-09T19:59:49.244Z,14.31
2023-05-09T20:02:15.724Z,14.29
2023-05-09T20:04:46.545Z,14.36
2023-05-09T20:07:13.099Z,14.45
2023-05-09T20:09:39.511Z,14.45
2023-05-09T20:12:06.424Z,14.39
2023-05-09T20:14:32.949Z,14.42
2023-05-09T20:16:59.447Z,14.24
2023-05-09T20:19:25.983Z,14.19
2023-05-09T20:21:52.528Z,14.21
2023-05-09T20:24:19.766Z,14.08
2023-05-09T20:26:46.357Z,14.00
2023-05-09T20:29:12.730Z,14.07
2023-05-09T20:31:41.818Z,14.02
2023-05-09T20:34:12.288Z,13.71
2023-05-09T20:36:38.807Z,13.91
2023-05-09T20:39:05.293Z,13.91
2023-05-09T20:41:32.005Z,13.98
2023-05-09T20:44:03.592Z,13.91
2023-05-09T20:46:30.906Z,13.93
2023-05-09T20:48:57.278Z,13.94
2023-05-09T20:51:23.935Z,13.94
2023-05-09T20:53:50.364Z,13.98
2023-05-09T20:56:16.942Z,13.98
2023-05-09T20:58:43.350Z,14.01
2023-05-09T21:01:09.937Z,14.08
2023-05-09T21:03:36.451Z,14.06
2023-05-09T21:06:03.053Z,14.13
2023-05-09T21:08:29.564Z,14.16
2023-05-09T21:10:56.090Z,14.06
2023-05-09T21:13:22.837Z,14.13
2023-05-09T21:15:50.819Z,14.17
2023-05-09T21:18:17.492Z,14.19
2023-05-09T21:20:45.087Z,14.14
2023-05-09T21:23:11.816Z,14.16
2023-05-09T21:25:38.241Z,14.17
2023-05-09T21:28:04.827Z,14.06
2023-05-09T21:30:31.613Z,14.10
2023-05-09T21:32:58.080Z,14.01
2023-05-09T21:35:24.518Z,14.07
2023-05-09T21:37:52.543Z,13.98
2023-05-09T21:40:19.126Z,14.00
2023-05-09T21:42:46.836Z,14.04
2023-05-09T21:45:13.614Z,13.96
2023-05-09T21:47:40.545Z,13.97
2023-05-09T21:50:10.587Z,13.93
2023-05-09T21:52:37.066Z,13.83
2023-05-09T21:55:03.758Z,13.76
2023-05-09T21:57:30.310Z,13.88
2023-05-09T22:00:00.989Z,13.77
2023-05-09T22:02:31.215Z,13.83
2023-05-09T22:04:57.921Z,13.87
2023-05-09T22:07:24.414Z,13.84
2023-05-09T22:09:50.920Z,13.79
2023-05-09T22:12:17.326Z,13.67
2023-05-09T22:14:55.259Z,13.80
2023-05-09T22:17:23.045Z,13.82
2023-05-09T22:19:49.541Z,13.80
2023-05-09T22:22:16.037Z,13.76
2023-05-09T22:24:42.720Z,13.75
2023-05-09T22:27:09.835Z,13.85
2023-05-09T22:29:36.417Z,13.81
2023-05-09T22:32:03.630Z,13.80
2023-05-09T22:34:30.676Z,13.87
2023-05-09T22:36:59.955Z,13.80
2023-05-09T22:39:26.814Z,13.90
2023-05-09T22:41:53.208Z,13.87
2023-05-09T22:44:19.727Z,13.85
2023-05-09T22:46:46.271Z,13.86
2023-05-09T22:49:12.876Z,13.96
2023-05-09T22:51:39.709Z,13.99
2023-05-09T22:54:06.253Z,14.03
2023-05-09T22:56:33.258Z,14.05
2023-05-09T22:58:59.750Z,14.04
2023-05-09T23:01:27.402Z,13.98
2023-05-09T23:03:53.932Z,13.93
2023-05-09T23:06:20.311Z,13.92
2023-05-09T23:08:46.838Z,13.91
2023-05-09T23:11:13.308Z,13.70
2023-05-09T23:13:39.782Z,13.63
2023-05-09T23:16:06.702Z,13.54
2023-05-09T23:18:33.124Z,13.58
2023-05-09T23:20:59.522Z,13.36
2023-05-09T23:23:26.119Z,13.34
2023-05-09T23:25:52.593Z,13.17
2023-05-09T23:28:20.349Z,13.16
2023-05-09T23:30:46.910Z,13.11
2023-05-09T23:33:13.361Z,13.11
2023-05-09T23:35:39.772Z,12.93
2023-05-09T23:38:06.305Z,12.88
2023-05-09T23:40:32.936Z,12.97
2023-05-09T23:42:59.503Z,12.76
2023-05-09T23:45:26.089Z,12.73
2023-05-09T23:47:52.803Z,12.67
2023-05-09T23:50:19.466Z,12.77
2023-05-09T23:52:49.177Z,12.56
2023-05-09T23:55:17.704Z,12.67
2023-05-09T23:57:44.424Z,12.64
